Update: 18-May-2024 19:57Z
33°C
WEATHER FORECAST DUBAI AIRPORT
 
Saturday, May 18, 2024 (19:58 UTC) 19
Dubai International Airport
Last Updated: 18-May-2024 (19:57Z)
Wind Dir/Speed: WNW at 05 kt
Temperature: 33.2°C
Rel. Humidity: 40 %
Pressure: 1005.2 hPa
Visibility: 15000 m
  • METAR OMDB 181930Z 26005KT 200V280 CAVOK 34/18 Q1005 NOSIG
DUBAI AIRPORT 5 DAY IMPACT:
HIGH:
°C
LOW:
°C
HIGH:
°C
LOW:
°C
HIGH:
°C
LOW:
°C
HIGH:
°C
LOW:
°C
HIGH:
°C
LOW:
°C

DUBAI AIRPORT WEATHER FORECAST FOR 30 HOUR:
DUBAI TAF:
TAF OMDB 181700Z 1818/2000 27010KT CAVOK
BECMG 1819/1821 21005KT
BECMG 1905/1907 27013KT
BECMG 1917/1919 20007KT=
VALID FROM:
2024-05-18 18:00Z
VALID TILL:
2024-05-20 00:00Z
SURFACE WIND:
W'LY 10KT

BECOMING SW'LY 05KT FROM 1900Z-2100Z TODAY

BECOMING W'LY 13KT FROM 0500Z-0700Z SUNDAY

BECOMING SSW'LY 07KT FROM 1700Z-1900Z SUNDAY.
VISIBILITY:
10-12 KM.
WEATHER:
FINE.
CLOUD:
NIL SIGNIFICANT.
TEMPERATURE:
MIN TEMPERATURE 31°C AROUND 0200Z SUNDAY

MAX TEMPERATURE 36°C AROUND 0800Z SUNDAY.
HUMIDITY:
MAX HUMIDITY 55% AROUND 0200Z SUNDAY

MIN HUMIDITY 20% AROUND 0800Z SUNDAY.
WIND SHEAR:
NIL SIGNIFICANT.
TEMPERATURE INVERSION:
NIL SIGNIFICANT.
COMMENTS:
NIL.
18/05/2024